sensor_id;sensor_type;location;lat;lon;timestamp;temperature;humidity
9509;DHT22;4792;50.088;8.122;2022-11-04T00:02:08;9.80;99.90
9509;DHT22;4792;50.088;8.122;2022-11-04T00:04:38;9.80;99.90
9509;DHT22;4792;50.088;8.122;2022-11-04T00:07:06;9.80;99.90
9509;DHT22;4792;50.088;8.122;2022-11-04T00:09:54;9.80;99.90
9509;DHT22;4792;50.088;8.122;2022-11-04T00:12:23;9.80;99.90
9509;DHT22;4792;50.088;8.122;2022-11-04T00:14:52;9.70;99.90
9509;DHT22;4792;50.088;8.122;2022-11-04T00:17:41;9.70;99.90
9509;DHT22;4792;50.088;8.122;2022-11-04T00:20:10;9.70;99.90
9509;DHT22;4792;50.088;8.122;2022-11-04T00:22:55;9.70;99.90
9509;DHT22;4792;50.088;8.122;2022-11-04T00:25:41;9.70;99.90
9509;DHT22;4792;50.088;8.122;2022-11-04T00:28:35;9.70;99.90
9509;DHT22;4792;50.088;8.122;2022-11-04T00:31:09;9.60;99.90
9509;DHT22;4792;50.088;8.122;2022-11-04T00:33:57;9.60;99.90
9509;DHT22;4792;50.088;8.122;2022-11-04T00:36:27;9.60;99.90
9509;DHT22;4792;50.088;8.122;2022-11-04T00:38:55;9.60;99.90
9509;DHT22;4792;50.088;8.122;2022-11-04T00:41:23;9.50;99.90
9509;DHT22;4792;50.088;8.122;2022-11-04T00:43:57;9.50;99.90
9509;DHT22;4792;50.088;8.122;2022-11-04T00:46:26;9.50;99.90
9509;DHT22;4792;50.088;8.122;2022-11-04T00:48:54;9.50;99.90
9509;DHT22;4792;50.088;8.122;2022-11-04T00:51:23;9.40;99.90
9509;DHT22;4792;50.088;8.122;2022-11-04T00:53:53;9.40;99.90
9509;DHT22;4792;50.088;8.122;2022-11-04T00:56:21;9.40;99.90
9509;DHT22;4792;50.088;8.122;2022-11-04T00:58:49;9.40;99.90
9509;DHT22;4792;50.088;8.122;2022-11-04T01:01:18;9.30;99.90
9509;DHT22;4792;50.088;8.122;2022-11-04T01:03:48;9.30;99.90
9509;DHT22;4792;50.088;8.122;2022-11-04T01:06:17;9.30;99.90
9509;DHT22;4792;50.088;8.122;2022-11-04T01:08:46;9.30;99.90
9509;DHT22;4792;50.088;8.122;2022-11-04T01:11:16;9.30;99.90
9509;DHT22;4792;50.088;8.122;2022-11-04T01:13:44;9.30;99.90
9509;DHT22;4792;50.088;8.122;2022-11-04T01:16:12;9.30;99.90
9509;DHT22;4792;50.088;8.122;2022-11-04T01:18:41;9.30;99.90
9509;DHT22;4792;50.088;8.122;2022-11-04T01:21:11;9.20;99.90
9509;DHT22;4792;50.088;8.122;2022-11-04T01:23:40;9.20;99.90
9509;DHT22;4792;50.088;8.122;2022-11-04T01:26:11;9.20;99.90
9509;DHT22;4792;50.088;8.122;2022-11-04T01:28:41;9.10;99.90
9509;DHT22;4792;50.088;8.122;2022-11-04T01:31:12;9.10;99.90
9509;DHT22;4792;50.088;8.122;2022-11-04T01:33:40;9.10;99.90
9509;DHT22;4792;50.088;8.122;2022-11-04T01:36:09;9.10;99.90
9509;DHT22;4792;50.088;8.122;2022-11-04T01:38:38;9.10;99.90
9509;DHT22;4792;50.088;8.122;2022-11-04T01:41:09;9.10;99.90
9509;DHT22;4792;50.088;8.122;2022-11-04T01:43:45;9.10;99.90
9509;DHT22;4792;50.088;8.122;2022-11-04T01:46:20;9.10;99.90
9509;DHT22;4792;50.088;8.122;2022-11-04T01:48:50;9.10;99.90
9509;DHT22;4792;50.088;8.122;2022-11-04T01:51:19;9.10;99.90
9509;DHT22;4792;50.088;8.122;2022-11-04T01:53:48;9.10;99.90
9509;DHT22;4792;50.088;8.122;2022-11-04T01:56:18;9.10;99.90
9509;DHT22;4792;50.088;8.122;2022-11-04T01:58:50;9.00;99.90
9509;DHT22;4792;50.088;8.122;2022-11-04T02:01:20;9.00;99.90
9509;DHT22;4792;50.088;8.122;2022-11-04T02:03:52;9.10;99.90
9509;DHT22;4792;50.088;8.122;2022-11-04T02:06:21;9.00;99.90
9509;DHT22;4792;50.088;8.122;2022-11-04T02:08:49;9.00;99.90
9509;DHT22;4792;50.088;8.122;2022-11-04T02:11:19;9.00;99.90
9509;DHT22;4792;50.088;8.122;2022-11-04T02:14:06;9.00;99.90
9509;DHT22;4792;50.088;8.122;2022-11-04T02:16:38;8.90;99.90
9509;DHT22;4792;50.088;8.122;2022-11-04T02:19:24;8.90;99.90
9509;DHT22;4792;50.088;8.122;2022-11-04T02:22:17;8.80;99.90
9509;DHT22;4792;50.088;8.122;2022-11-04T02:25:05;8.80;99.90
9509;DHT22;4792;50.088;8.122;2022-11-04T02:27:47;8.80;99.90
9509;DHT22;4792;50.088;8.122;2022-11-04T02:30:22;8.70;99.90
9509;DHT22;4792;50.088;8.122;2022-11-04T02:33:19;8.70;99.90
9509;DHT22;4792;50.088;8.122;2022-11-04T02:35:55;8.60;99.90
9509;DHT22;4792;50.088;8.122;2022-11-04T02:38:33;8.60;99.90
9509;DHT22;4792;50.088;8.122;2022-11-04T02:41:11;8.60;99.90
9509;DHT22;4792;50.088;8.122;2022-11-04T02:43:47;8.60;99.90
9509;DHT22;4792;50.088;8.122;2022-11-04T02:46:20;8.70;99.90
9509;DHT22;4792;50.088;8.122;2022-11-04T02:48:54;8.60;99.90
9509;DHT22;4792;50.088;8.122;2022-11-04T02:51:28;8.60;99.90
9509;DHT22;4792;50.088;8.122;2022-11-04T02:54:03;8.60;99.90
9509;DHT22;4792;50.088;8.122;2022-11-04T02:56:37;8.60;99.90
9509;DHT22;4792;50.088;8.122;2022-11-04T02:59:09;8.50;99.90
9509;DHT22;4792;50.088;8.122;2022-11-04T03:01:41;8.50;99.90
9509;DHT22;4792;50.088;8.122;2022-11-04T03:04:14;8.40;99.90
9509;DHT22;4792;50.088;8.122;2022-11-04T03:06:46;8.40;99.90
9509;DHT22;4792;50.088;8.122;2022-11-04T03:09:18;8.40;99.90
9509;DHT22;4792;50.088;8.122;2022-11-04T03:11:52;8.30;99.90
9509;DHT22;4792;50.088;8.122;2022-11-04T03:14:25;8.30;99.90
9509;DHT22;4792;50.088;8.122;2022-11-04T03:16:58;8.30;99.90
9509;DHT22;4792;50.088;8.122;2022-11-04T03:19:31;8.30;99.90
9509;DHT22;4792;50.088;8.122;2022-11-04T03:22:04;8.20;99.90
9509;DHT22;4792;50.088;8.122;2022-11-04T03:24:34;8.20;99.90
9509;DHT22;4792;50.088;8.122;2022-11-04T03:27:08;8.20;99.90
9509;DHT22;4792;50.088;8.122;2022-11-04T03:29:48;8.20;99.90
9509;DHT22;4792;50.088;8.122;2022-11-04T03:32:23;8.10;99.90
9509;DHT22;4792;50.088;8.122;2022-11-04T03:34:55;8.10;99.90
9509;DHT22;4792;50.088;8.122;2022-11-04T03:37:23;8.10;99.90
9509;DHT22;4792;50.088;8.122;2022-11-04T03:39:51;8.00;99.90
9509;DHT22;4792;50.088;8.122;2022-11-04T03:42:20;8.00;99.90
9509;DHT22;4792;50.088;8.122;2022-11-04T03:44:50;8.00;99.90
9509;DHT22;4792;50.088;8.122;2022-11-04T03:47:21;8.00;99.90
9509;DHT22;4792;50.088;8.122;2022-11-04T03:49:52;8.00;99.90
9509;DHT22;4792;50.088;8.122;2022-11-04T03:52:21;7.90;99.90
9509;DHT22;4792;50.088;8.122;2022-11-04T03:54:49;8.00;99.90
9509;DHT22;4792;50.088;8.122;2022-11-04T03:57:35;8.00;99.90
9509;DHT22;4792;50.088;8.122;2022-11-04T04:00:09;8.00;99.90
9509;DHT22;4792;50.088;8.122;2022-11-04T04:02:54;8.00;99.90
9509;DHT22;4792;50.088;8.122;2022-11-04T04:05:27;7.90;99.90
9509;DHT22;4792;50.088;8.122;2022-11-04T04:08:07;7.90;99.90
9509;DHT22;4792;50.088;8.122;2022-11-04T04:10:40;7.80;99.90
9509;DHT22;4792;50.088;8.122;2022-11-04T04:13:20;7.80;99.90
9509;DHT22;4792;50.088;8.122;2022-11-04T04:15:54;7.70;99.90
9509;DHT22;4792;50.088;8.122;2022-11-04T04:18:30;7.70;99.90
9509;DHT22;4792;50.088;8.122;2022-11-04T04:21:03;7.70;99.90
9509;DHT22;4792;50.088;8.122;2022-11-04T04:23:34;7.70;99.90
9509;DHT22;4792;50.088;8.122;2022-11-04T04:26:21;7.70;99.90
9509;DHT22;4792;50.088;8.122;2022-11-04T04:29:07;7.60;99.90
9509;DHT22;4792;50.088;8.122;2022-11-04T04:31:37;7.60;99.90
9509;DHT22;4792;50.088;8.122;2022-11-04T04:34:22;7.60;99.90
9509;DHT22;4792;50.088;8.122;2022-11-04T04:36:54;7.60;99.90
9509;DHT22;4792;50.088;8.122;2022-11-04T04:39:28;7.60;99.90
9509;DHT22;4792;50.088;8.122;2022-11-04T04:42:17;7.60;99.90
9509;DHT22;4792;50.088;8.122;2022-11-04T04:45:04;7.50;99.90
9509;DHT22;4792;50.088;8.122;2022-11-04T04:47:42;7.60;99.90
9509;DHT22;4792;50.088;8.122;2022-11-04T04:50:14;7.50;99.90
9509;DHT22;4792;50.088;8.122;2022-11-04T04:52:46;7.50;99.90
9509;DHT22;4792;50.088;8.122;2022-11-04T04:55:15;7.50;99.90
9509;DHT22;4792;50.088;8.122;2022-11-04T04:57:43;7.50;99.90
9509;DHT22;4792;50.088;8.122;2022-11-04T05:00:14;7.50;99.90
9509;DHT22;4792;50.088;8.122;2022-11-04T05:02:42;7.50;99.90
9509;DHT22;4792;50.088;8.122;2022-11-04T05:05:13;7.60;99.90
9509;DHT22;4792;50.088;8.122;2022-11-04T05:07:46;7.60;99.90
9509;DHT22;4792;50.088;8.122;2022-11-04T05:10:15;7.60;99.90
9509;DHT22;4792;50.088;8.122;2022-11-04T05:12:44;7.60;99.90
9509;DHT22;4792;50.088;8.122;2022-11-04T05:15:30;7.70;99.90
9509;DHT22;4792;50.088;8.122;2022-11-04T05:18:00;7.70;99.90
9509;DHT22;4792;50.088;8.122;2022-11-04T05:20:29;7.60;99.90
9509;DHT22;4792;50.088;8.122;2022-11-04T05:23:00;7.50;99.90
9509;DHT22;4792;50.088;8.122;2022-11-04T05:25:28;7.50;99.90
9509;DHT22;4792;50.088;8.122;2022-11-04T05:27:59;7.50;99.90
9509;DHT22;4792;50.088;8.122;2022-11-04T05:30:27;7.50;99.90
9509;DHT22;4792;50.088;8.122;2022-11-04T05:32:56;7.50;99.90
9509;DHT22;4792;50.088;8.122;2022-11-04T05:35:32;7.50;99.90
9509;DHT22;4792;50.088;8.122;2022-11-04T05:38:00;7.50;99.90
9509;DHT22;4792;50.088;8.122;2022-11-04T05:40:28;7.50;99.90
9509;DHT22;4792;50.088;8.122;2022-11-04T05:42:57;7.50;99.90
9509;DHT22;4792;50.088;8.122;2022-11-04T05:45:26;7.60;99.90
9509;DHT22;4792;50.088;8.122;2022-11-04T05:47:59;7.60;99.90
9509;DHT22;4792;50.088;8.122;2022-11-04T05:50:28;7.60;99.90
9509;DHT22;4792;50.088;8.122;2022-11-04T05:52:58;7.60;99.90
9509;DHT22;4792;50.088;8.122;2022-11-04T05:55:27;7.60;99.90
9509;DHT22;4792;50.088;8.122;2022-11-04T05:57:55;7.70;99.90
9509;DHT22;4792;50.088;8.122;2022-11-04T06:00:25;7.60;99.90
9509;DHT22;4792;50.088;8.122;2022-11-04T06:02:54;7.70;99.90
9509;DHT22;4792;50.088;8.122;2022-11-04T06:05:23;7.70;99.90
9509;DHT22;4792;50.088;8.122;2022-11-04T06:07:51;7.70;99.90
9509;DHT22;4792;50.088;8.122;2022-11-04T06:10:21;7.80;99.90
9509;DHT22;4792;50.088;8.122;2022-11-04T06:12:49;7.80;99.90
9509;DHT22;4792;50.088;8.122;2022-11-04T06:15:17;7.80;99.90
9509;DHT22;4792;50.088;8.122;2022-11-04T06:17:45;7.80;99.90
9509;DHT22;4792;50.088;8.122;2022-11-04T06:20:13;7.80;99.90
9509;DHT22;4792;50.088;8.122;2022-11-04T06:22:42;7.90;99.90
9509;DHT22;4792;50.088;8.122;2022-11-04T06:25:10;7.90;99.90
9509;DHT22;4792;50.088;8.122;2022-11-04T06:27:39;7.90;99.90
9509;DHT22;4792;50.088;8.122;2022-11-04T06:30:09;8.00;99.90
9509;DHT22;4792;50.088;8.122;2022-11-04T06:32:38;8.10;99.90
9509;DHT22;4792;50.088;8.122;2022-11-04T06:35:07;8.10;99.90
9509;DHT22;4792;50.088;8.122;2022-11-04T06:37:35;8.00;99.90
9509;DHT22;4792;50.088;8.122;2022-11-04T06:40:05;8.00;99.90
9509;DHT22;4792;50.088;8.122;2022-11-04T06:42:34;8.00;99.90
9509;DHT22;4792;50.088;8.122;2022-11-04T06:45:04;8.00;99.90
9509;DHT22;4792;50.088;8.122;2022-11-04T06:47:32;8.00;99.90
9509;DHT22;4792;50.088;8.122;2022-11-04T06:50:00;8.10;99.90
9509;DHT22;4792;50.088;8.122;2022-11-04T06:52:28;8.10;99.90
9509;DHT22;4792;50.088;8.122;2022-11-04T06:54:56;8.10;99.90
9509;DHT22;4792;50.088;8.122;2022-11-04T06:57:25;8.20;99.90
9509;DHT22;4792;50.088;8.122;2022-11-04T06:59:53;8.10;99.90
9509;DHT22;4792;50.088;8.122;2022-11-04T07:02:22;8.20;99.90
9509;DHT22;4792;50.088;8.122;2022-11-04T07:04:51;8.30;99.90
9509;DHT22;4792;50.088;8.122;2022-11-04T07:07:19;8.40;99.90
9509;DHT22;4792;50.088;8.122;2022-11-04T07:09:47;8.40;99.90
9509;DHT22;4792;50.088;8.122;2022-11-04T07:12:15;8.50;99.90
9509;DHT22;4792;50.088;8.122;2022-11-04T07:14:43;8.60;99.90
9509;DHT22;4792;50.088;8.122;2022-11-04T07:17:11;8.50;99.90
9509;DHT22;4792;50.088;8.122;2022-11-04T07:19:41;8.60;99.90
9509;DHT22;4792;50.088;8.122;2022-11-04T07:22:09;8.50;99.90
9509;DHT22;4792;50.088;8.122;2022-11-04T07:24:37;8.70;99.90
9509;DHT22;4792;50.088;8.122;2022-11-04T07:27:05;8.70;99.90
9509;DHT22;4792;50.088;8.122;2022-11-04T07:29:33;8.60;99.90
9509;DHT22;4792;50.088;8.122;2022-11-04T07:32:03;8.70;99.90
9509;DHT22;4792;50.088;8.122;2022-11-04T07:34:31;8.60;99.90
9509;DHT22;4792;50.088;8.122;2022-11-04T07:37:00;8.50;99.90
9509;DHT22;4792;50.088;8.122;2022-11-04T07:39:28;8.60;99.90
9509;DHT22;4792;50.088;8.122;2022-11-04T07:41:57;8.50;99.90
9509;DHT22;4792;50.088;8.122;2022-11-04T07:44:25;8.60;99.90
9509;DHT22;4792;50.088;8.122;2022-11-04T07:46:53;8.60;99.90
9509;DHT22;4792;50.088;8.122;2022-11-04T07:49:22;8.70;99.90
9509;DHT22;4792;50.088;8.122;2022-11-04T07:51:51;8.70;99.90
9509;DHT22;4792;50.088;8.122;2022-11-04T07:54:20;8.80;99.90
9509;DHT22;4792;50.088;8.122;2022-11-04T07:56:49;8.70;99.90
9509;DHT22;4792;50.088;8.122;2022-11-04T07:59:17;8.70;99.90
9509;DHT22;4792;50.088;8.122;2022-11-04T08:01:45;8.60;99.90
9509;DHT22;4792;50.088;8.122;2022-11-04T08:04:14;8.50;99.90
9509;DHT22;4792;50.088;8.122;2022-11-04T08:06:42;8.50;99.90
9509;DHT22;4792;50.088;8.122;2022-11-04T08:09:10;8.50;99.90
9509;DHT22;4792;50.088;8.122;2022-11-04T08:11:40;8.50;99.90
9509;DHT22;4792;50.088;8.122;2022-11-04T08:14:09;8.50;99.90
9509;DHT22;4792;50.088;8.122;2022-11-04T08:16:37;8.50;99.90
9509;DHT22;4792;50.088;8.122;2022-11-04T08:19:06;8.50;99.90
9509;DHT22;4792;50.088;8.122;2022-11-04T08:21:34;8.50;99.90
9509;DHT22;4792;50.088;8.122;2022-11-04T08:24:03;8.50;99.90
9509;DHT22;4792;50.088;8.122;2022-11-04T08:26:32;8.50;99.90
9509;DHT22;4792;50.088;8.122;2022-11-04T08:29:05;8.50;99.90
9509;DHT22;4792;50.088;8.122;2022-11-04T08:31:33;8.50;99.90
9509;DHT22;4792;50.088;8.122;2022-11-04T08:34:02;8.50;99.90
9509;DHT22;4792;50.088;8.122;2022-11-04T08:36:33;8.60;99.90
9509;DHT22;4792;50.088;8.122;2022-11-04T08:39:03;8.50;99.90
9509;DHT22;4792;50.088;8.122;2022-11-04T08:41:38;8.60;99.90
9509;DHT22;4792;50.088;8.122;2022-11-04T08:44:09;8.60;99.90
9509;DHT22;4792;50.088;8.122;2022-11-04T08:46:38;8.80;99.90
9509;DHT22;4792;50.088;8.122;2022-11-04T08:49:06;8.80;99.90
9509;DHT22;4792;50.088;8.122;2022-11-04T08:51:40;8.80;99.90
9509;DHT22;4792;50.088;8.122;2022-11-04T08:54:10;8.80;99.90
9509;DHT22;4792;50.088;8.122;2022-11-04T08:56:39;8.90;99.90
9509;DHT22;4792;50.088;8.122;2022-11-04T08:59:09;8.90;99.90
9509;DHT22;4792;50.088;8.122;2022-11-04T09:01:38;8.90;99.90
9509;DHT22;4792;50.088;8.122;2022-11-04T09:04:06;8.80;99.90
9509;DHT22;4792;50.088;8.122;2022-11-04T09:06:37;8.80;99.90
9509;DHT22;4792;50.088;8.122;2022-11-04T09:09:07;8.90;99.90
9509;DHT22;4792;50.088;8.122;2022-11-04T09:11:38;9.00;99.90
9509;DHT22;4792;50.088;8.122;2022-11-04T09:14:08;9.00;99.90
9509;DHT22;4792;50.088;8.122;2022-11-04T09:16:38;9.00;99.90
9509;DHT22;4792;50.088;8.122;2022-11-04T09:19:07;9.10;99.90
9509;DHT22;4792;50.088;8.122;2022-11-04T09:21:36;9.10;99.90
9509;DHT22;4792;50.088;8.122;2022-11-04T09:24:04;9.10;99.90
9509;DHT22;4792;50.088;8.122;2022-11-04T09:26:34;9.10;99.90
9509;DHT22;4792;50.088;8.122;2022-11-04T09:29:03;9.10;99.90
9509;DHT22;4792;50.088;8.122;2022-11-04T09:31:33;9.10;99.90
9509;DHT22;4792;50.088;8.122;2022-11-04T09:34:02;9.10;99.90
9509;DHT22;4792;50.088;8.122;2022-11-04T09:36:30;9.20;99.90
9509;DHT22;4792;50.088;8.122;2022-11-04T09:38:58;9.30;99.90
9509;DHT22;4792;50.088;8.122;2022-11-04T09:41:52;9.30;99.90
9509;DHT22;4792;50.088;8.122;2022-11-04T09:44:26;9.40;99.90
9509;DHT22;4792;50.088;8.122;2022-11-04T09:46:59;9.30;99.90
9509;DHT22;4792;50.088;8.122;2022-11-04T09:49:33;9.30;99.90
9509;DHT22;4792;50.088;8.122;2022-11-04T09:52:05;9.30;99.90
9509;DHT22;4792;50.088;8.122;2022-11-04T09:54:49;9.20;99.90
9509;DHT22;4792;50.088;8.122;2022-11-04T09:57:19;9.30;99.90
9509;DHT22;4792;50.088;8.122;2022-11-04T09:59:48;9.30;99.90
9509;DHT22;4792;50.088;8.122;2022-11-04T10:02:39;9.30;99.90
9509;DHT22;4792;50.088;8.122;2022-11-04T10:05:23;9.40;99.90
9509;DHT22;4792;50.088;8.122;2022-11-04T10:08:17;9.40;99.90
9509;DHT22;4792;50.088;8.122;2022-11-04T10:10:52;9.40;99.90
9509;DHT22;4792;50.088;8.122;2022-11-04T10:13:30;9.30;99.90
9509;DHT22;4792;50.088;8.122;2022-11-04T10:16:10;9.30;99.90
9509;DHT22;4792;50.088;8.122;2022-11-04T10:19:05;9.40;99.90
9509;DHT22;4792;50.088;8.122;2022-11-04T10:21:44;9.40;99.90
9509;DHT22;4792;50.088;8.122;2022-11-04T10:24:19;9.50;99.90
9509;DHT22;4792;50.088;8.122;2022-11-04T10:26:53;9.50;99.90
9509;DHT22;4792;50.088;8.122;2022-11-04T10:29:29;9.50;99.90
9509;DHT22;4792;50.088;8.122;2022-11-04T10:32:10;9.60;99.90
9509;DHT22;4792;50.088;8.122;2022-11-04T10:34:52;9.80;99.90
9509;DHT22;4792;50.088;8.122;2022-11-04T10:37:23;9.80;99.90
9509;DHT22;4792;50.088;8.122;2022-11-04T10:40:04;9.70;99.90
9509;DHT22;4792;50.088;8.122;2022-11-04T10:42:35;9.80;99.90
9509;DHT22;4792;50.088;8.122;2022-11-04T10:45:04;9.90;99.90
9509;DHT22;4792;50.088;8.122;2022-11-04T10:47:37;10.00;99.90
9509;DHT22;4792;50.088;8.122;2022-11-04T10:50:22;10.00;99.90
9509;DHT22;4792;50.088;8.122;2022-11-04T10:53:11;10.10;99.90
9509;DHT22;4792;50.088;8.122;2022-11-04T10:55:45;10.10;99.90
9509;DHT22;4792;50.088;8.122;2022-11-04T10:58:19;10.00;99.90
9509;DHT22;4792;50.088;8.122;2022-11-04T11:00:49;10.10;99.90
9509;DHT22;4792;50.088;8.122;2022-11-04T11:03:31;10.20;99.90
9509;DHT22;4792;50.088;8.122;2022-11-04T11:06:13;10.30;99.90
9509;DHT22;4792;50.088;8.122;2022-11-04T11:08:43;10.30;99.90
9509;DHT22;4792;50.088;8.122;2022-11-04T11:11:12;10.40;99.90
9509;DHT22;4792;50.088;8.122;2022-11-04T11:13:43;10.40;99.90
9509;DHT22;4792;50.088;8.122;2022-11-04T11:16:17;10.30;99.90
9509;DHT22;4792;50.088;8.122;2022-11-04T11:19:07;10.30;99.90
9509;DHT22;4792;50.088;8.122;2022-11-04T11:21:44;10.40;99.90
9509;DHT22;4792;50.088;8.122;2022-11-04T11:24:17;10.40;99.90
9509;DHT22;4792;50.088;8.122;2022-11-04T11:26:46;10.40;99.90
9509;DHT22;4792;50.088;8.122;2022-11-04T11:29:20;10.30;99.90
9509;DHT22;4792;50.088;8.122;2022-11-04T11:31:49;10.40;99.90
9509;DHT22;4792;50.088;8.122;2022-11-04T11:34:21;10.50;99.90
9509;DHT22;4792;50.088;8.122;2022-11-04T11:36:54;10.40;99.90
9509;DHT22;4792;50.088;8.122;2022-11-04T11:39:25;10.50;99.90
9509;DHT22;4792;50.088;8.122;2022-11-04T11:41:57;10.60;99.90
9509;DHT22;4792;50.088;8.122;2022-11-04T11:44:28;10.70;99.90
9509;DHT22;4792;50.088;8.122;2022-11-04T11:47:01;10.80;99.90
9509;DHT22;4792;50.088;8.122;2022-11-04T11:49:31;10.80;99.90
9509;DHT22;4792;50.088;8.122;2022-11-04T11:52:31;10.90;99.90
9509;DHT22;4792;50.088;8.122;2022-11-04T11:55:03;11.00;99.90
9509;DHT22;4792;50.088;8.122;2022-11-04T11:57:43;11.30;99.90
9509;DHT22;4792;50.088;8.122;2022-11-04T12:00:43;11.70;99.90
9509;DHT22;4792;50.088;8.122;2022-11-04T12:03:20;11.70;99.90
9509;DHT22;4792;50.088;8.122;2022-11-04T12:05:59;11.80;99.90
9509;DHT22;4792;50.088;8.122;2022-11-04T12:09:07;11.80;99.90
9509;DHT22;4792;50.088;8.122;2022-11-04T12:11:59;11.90;99.90
9509;DHT22;4792;50.088;8.122;2022-11-04T12:14:43;12.20;99.90
9509;DHT22;4792;50.088;8.122;2022-11-04T12:17:25;12.30;99.90
9509;DHT22;4792;50.088;8.122;2022-11-04T12:20:07;12.20;99.90
9509;DHT22;4792;50.088;8.122;2022-11-04T12:22:46;12.10;99.90
9509;DHT22;4792;50.088;8.122;2022-11-04T12:25:27;11.90;99.90
9509;DHT22;4792;50.088;8.122;2022-11-04T12:28:09;11.80;99.90
9509;DHT22;4792;50.088;8.122;2022-11-04T12:30:52;11.70;99.90
9509;DHT22;4792;50.088;8.122;2022-11-04T12:33:31;11.50;99.90
9509;DHT22;4792;50.088;8.122;2022-11-04T12:36:28;11.50;99.90
9509;DHT22;4792;50.088;8.122;2022-11-04T12:39:11;11.40;99.90
9509;DHT22;4792;50.088;8.122;2022-11-04T12:41:53;11.30;99.90
9509;DHT22;4792;50.088;8.122;2022-11-04T12:44:52;11.20;99.90
9509;DHT22;4792;50.088;8.122;2022-11-04T12:47:33;11.20;99.90
9509;DHT22;4792;50.088;8.122;2022-11-04T12:50:21;11.30;99.90
9509;DHT22;4792;50.088;8.122;2022-11-04T12:53:04;11.30;99.90
9509;DHT22;4792;50.088;8.122;2022-11-04T12:55:43;11.40;99.90
9509;DHT22;4792;50.088;8.122;2022-11-04T12:58:33;11.60;99.90
9509;DHT22;4792;50.088;8.122;2022-11-04T13:01:07;11.60;99.90
9509;DHT22;4792;50.088;8.122;2022-11-04T13:03:46;11.60;99.90
9509;DHT22;4792;50.088;8.122;2022-11-04T13:06:17;11.50;99.90
9509;DHT22;4792;50.088;8.122;2022-11-04T13:08:50;11.50;99.90
9509;DHT22;4792;50.088;8.122;2022-11-04T13:11:21;11.40;99.90
9509;DHT22;4792;50.088;8.122;2022-11-04T13:13:59;11.80;99.90
9509;DHT22;4792;50.088;8.122;2022-11-04T13:16:31;12.40;99.90
9509;DHT22;4792;50.088;8.122;2022-11-04T13:19:01;12.70;99.90
9509;DHT22;4792;50.088;8.122;2022-11-04T13:21:32;13.40;99.90
9509;DHT22;4792;50.088;8.122;2022-11-04T13:24:05;13.40;99.90
9509;DHT22;4792;50.088;8.122;2022-11-04T13:26:34;13.80;99.90
9509;DHT22;4792;50.088;8.122;2022-11-04T13:29:09;14.40;99.90
9509;DHT22;4792;50.088;8.122;2022-11-04T13:31:47;15.00;99.90
9509;DHT22;4792;50.088;8.122;2022-11-04T13:34:24;15.90;99.90
9509;DHT22;4792;50.088;8.122;2022-11-04T13:37:07;16.20;99.90
9509;DHT22;4792;50.088;8.122;2022-11-04T13:39:41;16.80;99.90
9509;DHT22;4792;50.088;8.122;2022-11-04T13:42:33;16.30;99.90
9509;DHT22;4792;50.088;8.122;2022-11-04T13:45:10;15.60;99.90
9509;DHT22;4792;50.088;8.122;2022-11-04T13:47:45;14.60;99.90
9509;DHT22;4792;50.088;8.122;2022-11-04T13:50:31;14.40;99.90
9509;DHT22;4792;50.088;8.122;2022-11-04T13:53:02;14.00;99.90
9509;DHT22;4792;50.088;8.122;2022-11-04T13:55:31;13.50;99.90
9509;DHT22;4792;50.088;8.122;2022-11-04T13:58:03;13.30;99.90
9509;DHT22;4792;50.088;8.122;2022-11-04T14:00:33;13.00;99.90
9509;DHT22;4792;50.088;8.122;2022-11-04T14:06:06;12.60;99.90
9509;DHT22;4792;50.088;8.122;2022-11-04T14:08:35;12.40;99.90
9509;DHT22;4792;50.088;8.122;2022-11-04T14:11:10;12.30;99.90
9509;DHT22;4792;50.088;8.122;2022-11-04T14:13:44;12.20;99.90
9509;DHT22;4792;50.088;8.122;2022-11-04T14:16:42;12.10;99.90
9509;DHT22;4792;50.088;8.122;2022-11-04T14:22:28;11.80;99.90
9509;DHT22;4792;50.088;8.122;2022-11-04T14:24:58;11.80;99.90
9509;DHT22;4792;50.088;8.122;2022-11-04T14:27:35;12.00;99.90
9509;DHT22;4792;50.088;8.122;2022-11-04T14:30:05;12.00;99.90
9509;DHT22;4792;50.088;8.122;2022-11-04T14:32:39;12.10;99.90
9509;DHT22;4792;50.088;8.122;2022-11-04T14:35:16;12.10;99.90
9509;DHT22;4792;50.088;8.122;2022-11-04T14:37:51;12.10;99.90
9509;DHT22;4792;50.088;8.122;2022-11-04T14:40:26;12.00;99.90
9509;DHT22;4792;50.088;8.122;2022-11-04T14:42:55;11.90;99.90
9509;DHT22;4792;50.088;8.122;2022-11-04T14:45:27;11.90;99.90
9509;DHT22;4792;50.088;8.122;2022-11-04T14:48:09;12.00;99.90
9509;DHT22;4792;50.088;8.122;2022-11-04T14:50:44;11.80;99.90
9509;DHT22;4792;50.088;8.122;2022-11-04T14:53:19;11.60;99.90
9509;DHT22;4792;50.088;8.122;2022-11-04T14:56:02;11.60;99.90
9509;DHT22;4792;50.088;8.122;2022-11-04T14:58:30;11.40;99.90
9509;DHT22;4792;50.088;8.122;2022-11-04T15:00:59;11.40;99.90
9509;DHT22;4792;50.088;8.122;2022-11-04T15:03:34;11.30;99.90
9509;DHT22;4792;50.088;8.122;2022-11-04T15:06:24;11.20;99.90
9509;DHT22;4792;50.088;8.122;2022-11-04T15:09:18;11.10;99.90
9509;DHT22;4792;50.088;8.122;2022-11-04T15:11:47;10.90;99.90
9509;DHT22;4792;50.088;8.122;2022-11-04T15:14:35;10.80;99.90
9509;DHT22;4792;50.088;8.122;2022-11-04T15:17:03;10.70;99.90
9509;DHT22;4792;50.088;8.122;2022-11-04T15:19:34;10.70;99.90
9509;DHT22;4792;50.088;8.122;2022-11-04T15:22:04;10.70;99.90
9509;DHT22;4792;50.088;8.122;2022-11-04T15:24:33;10.60;99.90
9509;DHT22;4792;50.088;8.122;2022-11-04T15:27:04;10.70;99.90
9509;DHT22;4792;50.088;8.122;2022-11-04T15:29:33;10.70;99.90
9509;DHT22;4792;50.088;8.122;2022-11-04T15:32:03;10.70;99.90
9509;DHT22;4792;50.088;8.122;2022-11-04T15:34:33;10.70;99.90
9509;DHT22;4792;50.088;8.122;2022-11-04T15:37:03;10.70;99.90
9509;DHT22;4792;50.088;8.122;2022-11-04T15:39:35;10.70;99.90
9509;DHT22;4792;50.088;8.122;2022-11-04T15:42:06;10.80;99.90
9509;DHT22;4792;50.088;8.122;2022-11-04T15:44:55;10.80;99.90
9509;DHT22;4792;50.088;8.122;2022-11-04T15:47:25;10.80;99.90
9509;DHT22;4792;50.088;8.122;2022-11-04T15:50:02;10.80;99.90
9509;DHT22;4792;50.088;8.122;2022-11-04T15:52:30;10.80;99.90
9509;DHT22;4792;50.088;8.122;2022-11-04T15:54:59;10.80;99.90
9509;DHT22;4792;50.088;8.122;2022-11-04T15:57:31;10.90;99.90
9509;DHT22;4792;50.088;8.122;2022-11-04T16:00:03;10.90;99.90
9509;DHT22;4792;50.088;8.122;2022-11-04T16:02:33;10.90;99.90
9509;DHT22;4792;50.088;8.122;2022-11-04T16:05:20;10.80;99.90
9509;DHT22;4792;50.088;8.122;2022-11-04T16:07:50;10.80;99.90
9509;DHT22;4792;50.088;8.122;2022-11-04T16:10:27;10.80;99.90
9509;DHT22;4792;50.088;8.122;2022-11-04T16:12:58;10.80;99.90
9509;DHT22;4792;50.088;8.122;2022-11-04T16:15:31;10.70;99.90
9509;DHT22;4792;50.088;8.122;2022-11-04T16:18:00;10.70;99.90
9509;DHT22;4792;50.088;8.122;2022-11-04T16:20:30;10.70;99.90
9509;DHT22;4792;50.088;8.122;2022-11-04T16:23:00;10.70;99.90
9509;DHT22;4792;50.088;8.122;2022-11-04T16:25:31;10.60;99.90
9509;DHT22;4792;50.088;8.122;2022-11-04T16:28:01;10.60;99.90
9509;DHT22;4792;50.088;8.122;2022-11-04T16:30:29;10.60;99.90
9509;DHT22;4792;50.088;8.122;2022-11-04T16:33:07;10.60;99.90
9509;DHT22;4792;50.088;8.122;2022-11-04T16:35:39;10.50;99.90
9509;DHT22;4792;50.088;8.122;2022-11-04T16:38:08;10.40;99.90
9509;DHT22;4792;50.088;8.122;2022-11-04T16:40:37;10.60;99.90
9509;DHT22;4792;50.088;8.122;2022-11-04T16:43:05;10.50;99.90
9509;DHT22;4792;50.088;8.122;2022-11-04T16:45:35;10.40;99.90
9509;DHT22;4792;50.088;8.122;2022-11-04T16:48:04;10.20;99.90
9509;DHT22;4792;50.088;8.122;2022-11-04T16:50:33;10.20;99.90
9509;DHT22;4792;50.088;8.122;2022-11-04T16:53:03;10.20;99.90
9509;DHT22;4792;50.088;8.122;2022-11-04T16:55:31;10.20;99.90
9509;DHT22;4792;50.088;8.122;2022-11-04T16:58:01;10.10;99.90
9509;DHT22;4792;50.088;8.122;2022-11-04T17:00:31;10.10;99.90